sensor_id;sensor_type;location;lat;lon;timestamp;P1;durP1;ratioP1;P2;durP2;ratioP2
20844;SDS011;10583;49.084;8.646;2023-12-20T00:01:32;4.30;;;4.30;;
20844;SDS011;10583;49.084;8.646;2023-12-20T00:04:00;4.50;;;4.50;;
20844;SDS011;10583;49.084;8.646;2023-12-20T00:06:28;4.10;;;4.10;;
20844;SDS011;10583;49.084;8.646;2023-12-20T00:08:54;4.13;;;4.13;;
20844;SDS011;10583;49.084;8.646;2023-12-20T00:11:22;4.20;;;4.20;;
20844;SDS011;10583;49.084;8.646;2023-12-20T00:13:49;4.37;;;4.37;;
20844;SDS011;10583;49.084;8.646;2023-12-20T00:16:16;4.10;;;4.10;;
20844;SDS011;10583;49.084;8.646;2023-12-20T00:18:43;4.57;;;4.57;;
20844;SDS011;10583;49.084;8.646;2023-12-20T00:21:11;4.70;;;4.70;;
20844;SDS011;10583;49.084;8.646;2023-12-20T00:23:38;4.50;;;4.50;;
20844;SDS011;10583;49.084;8.646;2023-12-20T00:26:04;4.63;;;4.63;;
20844;SDS011;10583;49.084;8.646;2023-12-20T00:28:31;4.90;;;4.90;;
20844;SDS011;10583;49.084;8.646;2023-12-20T00:30:58;4.80;;;4.80;;
20844;SDS011;10583;49.084;8.646;2023-12-20T00:33:24;5.30;;;5.30;;
20844;SDS011;10583;49.084;8.646;2023-12-20T00:35:51;5.40;;;5.40;;
20844;SDS011;10583;49.084;8.646;2023-12-20T00:38:20;4.87;;;4.87;;
20844;SDS011;10583;49.084;8.646;2023-12-20T00:40:47;5.27;;;5.27;;
20844;SDS011;10583;49.084;8.646;2023-12-20T00:43:14;5.47;;;5.47;;
20844;SDS011;10583;49.084;8.646;2023-12-20T00:45:41;4.97;;;4.97;;
20844;SDS011;10583;49.084;8.646;2023-12-20T00:48:08;5.83;;;5.83;;
20844;SDS011;10583;49.084;8.646;2023-12-20T00:50:34;5.57;;;5.57;;
20844;SDS011;10583;49.084;8.646;2023-12-20T00:53:01;5.53;;;5.53;;
20844;SDS011;10583;49.084;8.646;2023-12-20T00:55:29;4.90;;;4.90;;
20844;SDS011;10583;49.084;8.646;2023-12-20T00:57:56;5.43;;;5.43;;
20844;SDS011;10583;49.084;8.646;2023-12-20T01:00:24;5.57;;;5.57;;
20844;SDS011;10583;49.084;8.646;2023-12-20T01:02:51;4.73;;;4.73;;
20844;SDS011;10583;49.084;8.646;2023-12-20T01:05:17;5.10;;;5.10;;
20844;SDS011;10583;49.084;8.646;2023-12-20T01:07:48;5.37;;;5.37;;
20844;SDS011;10583;49.084;8.646;2023-12-20T01:10:14;4.90;;;4.90;;
20844;SDS011;10583;49.084;8.646;2023-12-20T01:12:43;4.97;;;4.97;;
20844;SDS011;10583;49.084;8.646;2023-12-20T01:15:10;4.90;;;4.90;;
20844;SDS011;10583;49.084;8.646;2023-12-20T01:17:37;4.33;;;4.33;;
20844;SDS011;10583;49.084;8.646;2023-12-20T01:20:04;5.23;;;5.23;;
20844;SDS011;10583;49.084;8.646;2023-12-20T01:22:32;5.83;;;5.83;;
20844;SDS011;10583;49.084;8.646;2023-12-20T01:25:00;3.83;;;3.83;;
20844;SDS011;10583;49.084;8.646;2023-12-20T01:27:27;4.77;;;4.77;;
20844;SDS011;10583;49.084;8.646;2023-12-20T01:29:57;5.63;;;5.63;;
20844;SDS011;10583;49.084;8.646;2023-12-20T01:32:24;4.83;;;4.83;;
20844;SDS011;10583;49.084;8.646;2023-12-20T01:34:50;5.23;;;5.23;;
20844;SDS011;10583;49.084;8.646;2023-12-20T01:37:17;4.73;;;4.73;;
20844;SDS011;10583;49.084;8.646;2023-12-20T01:39:44;5.53;;;5.53;;
20844;SDS011;10583;49.084;8.646;2023-12-20T01:42:10;5.17;;;5.17;;
20844;SDS011;10583;49.084;8.646;2023-12-20T01:44:37;4.93;;;4.93;;
20844;SDS011;10583;49.084;8.646;2023-12-20T01:47:05;5.50;;;5.50;;
20844;SDS011;10583;49.084;8.646;2023-12-20T01:49:32;5.23;;;5.23;;
20844;SDS011;10583;49.084;8.646;2023-12-20T01:51:59;5.73;;;5.73;;
20844;SDS011;10583;49.084;8.646;2023-12-20T01:54:26;4.90;;;4.90;;
20844;SDS011;10583;49.084;8.646;2023-12-20T01:56:52;5.30;;;5.30;;
20844;SDS011;10583;49.084;8.646;2023-12-20T01:59:19;5.17;;;5.17;;
20844;SDS011;10583;49.084;8.646;2023-12-20T02:01:47;4.60;;;4.60;;
20844;SDS011;10583;49.084;8.646;2023-12-20T02:04:15;5.20;;;5.20;;
20844;SDS011;10583;49.084;8.646;2023-12-20T02:06:42;5.30;;;5.30;;
20844;SDS011;10583;49.084;8.646;2023-12-20T02:09:12;4.87;;;4.87;;
20844;SDS011;10583;49.084;8.646;2023-12-20T02:11:38;5.37;;;5.37;;
20844;SDS011;10583;49.084;8.646;2023-12-20T02:14:06;5.23;;;5.23;;
20844;SDS011;10583;49.084;8.646;2023-12-20T02:16:33;5.40;;;5.40;;
20844;SDS011;10583;49.084;8.646;2023-12-20T02:18:59;5.00;;;5.00;;
20844;SDS011;10583;49.084;8.646;2023-12-20T02:21:32;5.17;;;5.17;;
20844;SDS011;10583;49.084;8.646;2023-12-20T02:24:00;5.40;;;5.40;;
20844;SDS011;10583;49.084;8.646;2023-12-20T02:26:26;5.47;;;5.47;;
20844;SDS011;10583;49.084;8.646;2023-12-20T02:28:53;5.17;;;5.17;;
20844;SDS011;10583;49.084;8.646;2023-12-20T02:31:20;4.97;;;4.97;;
20844;SDS011;10583;49.084;8.646;2023-12-20T02:33:47;4.40;;;4.40;;
20844;SDS011;10583;49.084;8.646;2023-12-20T02:36:14;4.20;;;4.20;;
20844;SDS011;10583;49.084;8.646;2023-12-20T02:38:42;4.70;;;4.70;;
20844;SDS011;10583;49.084;8.646;2023-12-20T02:41:09;4.83;;;4.83;;
20844;SDS011;10583;49.084;8.646;2023-12-20T02:43:35;5.23;;;5.23;;
20844;SDS011;10583;49.084;8.646;2023-12-20T02:46:02;4.40;;;4.40;;
20844;SDS011;10583;49.084;8.646;2023-12-20T02:48:29;5.33;;;5.33;;
20844;SDS011;10583;49.084;8.646;2023-12-20T02:50:56;4.70;;;4.70;;
20844;SDS011;10583;49.084;8.646;2023-12-20T02:53:22;4.23;;;4.23;;
20844;SDS011;10583;49.084;8.646;2023-12-20T02:55:50;4.40;;;4.40;;
20844;SDS011;10583;49.084;8.646;2023-12-20T02:58:17;5.00;;;5.00;;
20844;SDS011;10583;49.084;8.646;2023-12-20T03:00:43;4.77;;;4.77;;
20844;SDS011;10583;49.084;8.646;2023-12-20T03:03:10;5.10;;;5.10;;
20844;SDS011;10583;49.084;8.646;2023-12-20T03:05:37;5.60;;;5.60;;
20844;SDS011;10583;49.084;8.646;2023-12-20T03:08:04;5.30;;;5.30;;
20844;SDS011;10583;49.084;8.646;2023-12-20T03:10:31;5.13;;;5.13;;
20844;SDS011;10583;49.084;8.646;2023-12-20T03:12:59;5.00;;;5.00;;
20844;SDS011;10583;49.084;8.646;2023-12-20T03:15:26;5.37;;;5.37;;
20844;SDS011;10583;49.084;8.646;2023-12-20T03:17:52;4.60;;;4.60;;
20844;SDS011;10583;49.084;8.646;2023-12-20T03:20:19;5.13;;;5.13;;
20844;SDS011;10583;49.084;8.646;2023-12-20T03:22:46;4.73;;;4.73;;
20844;SDS011;10583;49.084;8.646;2023-12-20T03:25:12;5.40;;;5.40;;
20844;SDS011;10583;49.084;8.646;2023-12-20T03:27:39;5.20;;;5.20;;
20844;SDS011;10583;49.084;8.646;2023-12-20T03:30:07;4.70;;;4.70;;
20844;SDS011;10583;49.084;8.646;2023-12-20T03:32:35;5.30;;;5.30;;
20844;SDS011;10583;49.084;8.646;2023-12-20T03:35:02;4.70;;;4.70;;
20844;SDS011;10583;49.084;8.646;2023-12-20T03:37:29;4.60;;;4.60;;
20844;SDS011;10583;49.084;8.646;2023-12-20T03:39:56;4.23;;;4.23;;
20844;SDS011;10583;49.084;8.646;2023-12-20T03:42:23;3.93;;;3.93;;
20844;SDS011;10583;49.084;8.646;2023-12-20T03:44:49;4.67;;;4.67;;
20844;SDS011;10583;49.084;8.646;2023-12-20T03:47:17;5.17;;;5.17;;
20844;SDS011;10583;49.084;8.646;2023-12-20T03:49:44;4.90;;;4.90;;
20844;SDS011;10583;49.084;8.646;2023-12-20T03:52:11;5.43;;;5.43;;
20844;SDS011;10583;49.084;8.646;2023-12-20T03:54:38;4.63;;;4.63;;
20844;SDS011;10583;49.084;8.646;2023-12-20T03:57:04;4.30;;;4.30;;
20844;SDS011;10583;49.084;8.646;2023-12-20T03:59:34;5.00;;;5.00;;
20844;SDS011;10583;49.084;8.646;2023-12-20T04:02:01;4.80;;;4.80;;
20844;SDS011;10583;49.084;8.646;2023-12-20T04:04:29;4.83;;;4.83;;
20844;SDS011;10583;49.084;8.646;2023-12-20T04:06:56;4.67;;;4.67;;
20844;SDS011;10583;49.084;8.646;2023-12-20T04:09:22;4.43;;;4.43;;
20844;SDS011;10583;49.084;8.646;2023-12-20T04:11:49;5.00;;;5.00;;
20844;SDS011;10583;49.084;8.646;2023-12-20T04:14:16;5.00;;;5.00;;
20844;SDS011;10583;49.084;8.646;2023-12-20T04:16:42;5.20;;;5.20;;
20844;SDS011;10583;49.084;8.646;2023-12-20T04:19:09;5.07;;;5.07;;
20844;SDS011;10583;49.084;8.646;2023-12-20T04:21:37;5.17;;;5.17;;
20844;SDS011;10583;49.084;8.646;2023-12-20T04:24:04;4.57;;;4.57;;
20844;SDS011;10583;49.084;8.646;2023-12-20T04:26:31;4.90;;;4.90;;
20844;SDS011;10583;49.084;8.646;2023-12-20T04:28:58;4.60;;;4.60;;
20844;SDS011;10583;49.084;8.646;2023-12-20T04:31:24;4.83;;;4.83;;
20844;SDS011;10583;49.084;8.646;2023-12-20T04:33:51;4.97;;;4.97;;
20844;SDS011;10583;49.084;8.646;2023-12-20T04:36:18;4.77;;;4.77;;
20844;SDS011;10583;49.084;8.646;2023-12-20T04:38:46;5.43;;;5.43;;
20844;SDS011;10583;49.084;8.646;2023-12-20T04:41:13;4.83;;;4.83;;
20844;SDS011;10583;49.084;8.646;2023-12-20T04:43:41;4.93;;;4.93;;
20844;SDS011;10583;49.084;8.646;2023-12-20T04:46:07;5.27;;;5.27;;
20844;SDS011;10583;49.084;8.646;2023-12-20T04:48:34;4.60;;;4.60;;
20844;SDS011;10583;49.084;8.646;2023-12-20T04:51:01;5.10;;;5.10;;
20844;SDS011;10583;49.084;8.646;2023-12-20T04:53:27;4.60;;;4.60;;
20844;SDS011;10583;49.084;8.646;2023-12-20T04:55:55;4.93;;;4.93;;
20844;SDS011;10583;49.084;8.646;2023-12-20T04:58:22;4.60;;;4.60;;
20844;SDS011;10583;49.084;8.646;2023-12-20T05:00:49;4.77;;;4.77;;
20844;SDS011;10583;49.084;8.646;2023-12-20T05:03:15;4.60;;;4.60;;
20844;SDS011;10583;49.084;8.646;2023-12-20T05:05:42;4.40;;;4.40;;
20844;SDS011;10583;49.084;8.646;2023-12-20T05:08:09;4.63;;;4.63;;
20844;SDS011;10583;49.084;8.646;2023-12-20T05:10:35;4.90;;;4.90;;
20844;SDS011;10583;49.084;8.646;2023-12-20T05:13:03;4.77;;;4.77;;
20844;SDS011;10583;49.084;8.646;2023-12-20T05:15:30;4.90;;;4.90;;
20844;SDS011;10583;49.084;8.646;2023-12-20T05:17:57;5.20;;;5.20;;
20844;SDS011;10583;49.084;8.646;2023-12-20T05:20:24;4.97;;;4.97;;
20844;SDS011;10583;49.084;8.646;2023-12-20T05:22:50;5.40;;;5.40;;
20844;SDS011;10583;49.084;8.646;2023-12-20T05:25:17;5.63;;;5.63;;
20844;SDS011;10583;49.084;8.646;2023-12-20T05:27:44;6.13;;;6.13;;
20844;SDS011;10583;49.084;8.646;2023-12-20T05:30:12;6.53;;;6.53;;
20844;SDS011;10583;49.084;8.646;2023-12-20T05:32:39;6.20;;;6.20;;
20844;SDS011;10583;49.084;8.646;2023-12-20T05:35:06;5.87;;;5.87;;
20844;SDS011;10583;49.084;8.646;2023-12-20T05:37:33;6.47;;;6.47;;
20844;SDS011;10583;49.084;8.646;2023-12-20T05:40:00;6.20;;;6.20;;
20844;SDS011;10583;49.084;8.646;2023-12-20T05:42:26;6.20;;;6.20;;
20844;SDS011;10583;49.084;8.646;2023-12-20T05:44:53;6.50;;;6.50;;
20844;SDS011;10583;49.084;8.646;2023-12-20T05:47:20;6.13;;;6.13;;
20844;SDS011;10583;49.084;8.646;2023-12-20T05:49:47;6.83;;;6.83;;
20844;SDS011;10583;49.084;8.646;2023-12-20T05:52:15;6.47;;;6.47;;
20844;SDS011;10583;49.084;8.646;2023-12-20T05:54:41;6.03;;;6.03;;
20844;SDS011;10583;49.084;8.646;2023-12-20T05:57:08;6.70;;;6.70;;
20844;SDS011;10583;49.084;8.646;2023-12-20T05:59:35;5.30;;;5.30;;
20844;SDS011;10583;49.084;8.646;2023-12-20T06:02:02;6.53;;;6.53;;
20844;SDS011;10583;49.084;8.646;2023-12-20T06:04:31;5.63;;;5.63;;
20844;SDS011;10583;49.084;8.646;2023-12-20T06:06:58;5.90;;;5.90;;
20844;SDS011;10583;49.084;8.646;2023-12-20T06:09:26;6.33;;;6.33;;
20844;SDS011;10583;49.084;8.646;2023-12-20T06:11:53;6.23;;;6.23;;
20844;SDS011;10583;49.084;8.646;2023-12-20T06:14:19;6.90;;;6.90;;
20844;SDS011;10583;49.084;8.646;2023-12-20T06:16:46;7.30;;;7.30;;
20844;SDS011;10583;49.084;8.646;2023-12-20T06:19:13;5.87;;;5.87;;
20844;SDS011;10583;49.084;8.646;2023-12-20T06:21:41;6.70;;;6.70;;
20844;SDS011;10583;49.084;8.646;2023-12-20T06:24:07;6.50;;;6.50;;
20844;SDS011;10583;49.084;8.646;2023-12-20T06:26:34;7.17;;;7.17;;
20844;SDS011;10583;49.084;8.646;2023-12-20T06:29:01;6.47;;;6.47;;
20844;SDS011;10583;49.084;8.646;2023-12-20T06:31:28;6.37;;;6.37;;
20844;SDS011;10583;49.084;8.646;2023-12-20T06:33:54;6.07;;;6.07;;
20844;SDS011;10583;49.084;8.646;2023-12-20T06:36:24;5.60;;;5.60;;
20844;SDS011;10583;49.084;8.646;2023-12-20T06:38:53;5.87;;;5.87;;
20844;SDS011;10583;49.084;8.646;2023-12-20T06:41:19;4.73;;;4.73;;
20844;SDS011;10583;49.084;8.646;2023-12-20T06:43:46;4.90;;;4.90;;
20844;SDS011;10583;49.084;8.646;2023-12-20T06:46:13;5.10;;;5.10;;
20844;SDS011;10583;49.084;8.646;2023-12-20T06:48:40;4.83;;;4.83;;
20844;SDS011;10583;49.084;8.646;2023-12-20T06:51:10;5.10;;;5.10;;
20844;SDS011;10583;49.084;8.646;2023-12-20T06:53:38;5.20;;;5.20;;
20844;SDS011;10583;49.084;8.646;2023-12-20T06:56:06;5.17;;;5.17;;
20844;SDS011;10583;49.084;8.646;2023-12-20T06:58:33;4.63;;;4.63;;
20844;SDS011;10583;49.084;8.646;2023-12-20T07:01:01;4.30;;;4.30;;
20844;SDS011;10583;49.084;8.646;2023-12-20T07:03:29;4.57;;;4.57;;
20844;SDS011;10583;49.084;8.646;2023-12-20T07:05:56;4.33;;;4.33;;
20844;SDS011;10583;49.084;8.646;2023-12-20T07:08:23;4.67;;;4.67;;
20844;SDS011;10583;49.084;8.646;2023-12-20T07:10:49;4.50;;;4.50;;
20844;SDS011;10583;49.084;8.646;2023-12-20T07:13:17;4.63;;;4.63;;
20844;SDS011;10583;49.084;8.646;2023-12-20T07:15:44;4.47;;;4.47;;
20844;SDS011;10583;49.084;8.646;2023-12-20T07:18:11;4.50;;;4.50;;
20844;SDS011;10583;49.084;8.646;2023-12-20T07:20:38;4.43;;;4.43;;
20844;SDS011;10583;49.084;8.646;2023-12-20T07:23:05;4.33;;;4.33;;
20844;SDS011;10583;49.084;8.646;2023-12-20T07:25:31;4.20;;;4.20;;
20844;SDS011;10583;49.084;8.646;2023-12-20T07:27:58;4.30;;;4.30;;
20844;SDS011;10583;49.084;8.646;2023-12-20T07:30:27;4.50;;;4.50;;
20844;SDS011;10583;49.084;8.646;2023-12-20T07:32:53;3.97;;;3.97;;
20844;SDS011;10583;49.084;8.646;2023-12-20T07:35:20;4.07;;;4.07;;
20844;SDS011;10583;49.084;8.646;2023-12-20T07:37:47;3.40;;;3.40;;
20844;SDS011;10583;49.084;8.646;2023-12-20T07:40:13;4.00;;;4.00;;
20844;SDS011;10583;49.084;8.646;2023-12-20T07:42:42;4.00;;;4.00;;
20844;SDS011;10583;49.084;8.646;2023-12-20T07:45:09;4.63;;;4.63;;
20844;SDS011;10583;49.084;8.646;2023-12-20T07:47:38;4.30;;;4.30;;
20844;SDS011;10583;49.084;8.646;2023-12-20T07:50:06;3.63;;;3.63;;
20844;SDS011;10583;49.084;8.646;2023-12-20T07:52:33;4.10;;;4.10;;
20844;SDS011;10583;49.084;8.646;2023-12-20T07:54:59;4.00;;;4.00;;
20844;SDS011;10583;49.084;8.646;2023-12-20T07:57:28;3.17;;;3.17;;
20844;SDS011;10583;49.084;8.646;2023-12-20T07:59:55;3.63;;;3.63;;
20844;SDS011;10583;49.084;8.646;2023-12-20T08:02:22;3.43;;;3.43;;
20844;SDS011;10583;49.084;8.646;2023-12-20T08:04:49;3.40;;;3.40;;
20844;SDS011;10583;49.084;8.646;2023-12-20T08:07:16;3.17;;;3.17;;
20844;SDS011;10583;49.084;8.646;2023-12-20T08:09:43;2.77;;;2.77;;
20844;SDS011;10583;49.084;8.646;2023-12-20T08:12:09;3.10;;;3.10;;
20844;SDS011;10583;49.084;8.646;2023-12-20T08:14:38;2.77;;;2.77;;
20844;SDS011;10583;49.084;8.646;2023-12-20T08:17:05;3.30;;;3.30;;
20844;SDS011;10583;49.084;8.646;2023-12-20T08:19:31;2.80;;;2.80;;
20844;SDS011;10583;49.084;8.646;2023-12-20T08:21:59;2.97;;;2.97;;
20844;SDS011;10583;49.084;8.646;2023-12-20T08:24:26;2.70;;;2.70;;
20844;SDS011;10583;49.084;8.646;2023-12-20T08:26:53;2.90;;;2.90;;
20844;SDS011;10583;49.084;8.646;2023-12-20T08:29:19;3.17;;;3.17;;
20844;SDS011;10583;49.084;8.646;2023-12-20T08:31:46;2.83;;;2.83;;
20844;SDS011;10583;49.084;8.646;2023-12-20T08:34:18;3.20;;;3.20;;
20844;SDS011;10583;49.084;8.646;2023-12-20T08:36:45;3.07;;;3.07;;
20844;SDS011;10583;49.084;8.646;2023-12-20T08:39:13;3.30;;;3.30;;
20844;SDS011;10583;49.084;8.646;2023-12-20T08:41:39;3.70;;;3.70;;
20844;SDS011;10583;49.084;8.646;2023-12-20T08:44:06;3.07;;;3.07;;
20844;SDS011;10583;49.084;8.646;2023-12-20T08:46:33;2.67;;;2.67;;
20844;SDS011;10583;49.084;8.646;2023-12-20T08:49:00;2.77;;;2.77;;
20844;SDS011;10583;49.084;8.646;2023-12-20T08:51:27;2.33;;;2.33;;
20844;SDS011;10583;49.084;8.646;2023-12-20T08:53:54;2.47;;;2.47;;
20844;SDS011;10583;49.084;8.646;2023-12-20T08:56:22;2.60;;;2.60;;
20844;SDS011;10583;49.084;8.646;2023-12-20T08:58:49;2.40;;;2.40;;
20844;SDS011;10583;49.084;8.646;2023-12-20T09:01:15;2.40;;;2.40;;
20844;SDS011;10583;49.084;8.646;2023-12-20T09:03:42;2.50;;;2.50;;
20844;SDS011;10583;49.084;8.646;2023-12-20T09:06:09;2.10;;;2.10;;
20844;SDS011;10583;49.084;8.646;2023-12-20T09:08:36;2.13;;;2.13;;
20844;SDS011;10583;49.084;8.646;2023-12-20T09:11:02;2.33;;;2.33;;
20844;SDS011;10583;49.084;8.646;2023-12-20T09:13:30;1.77;;;1.77;;
20844;SDS011;10583;49.084;8.646;2023-12-20T09:15:57;2.13;;;2.13;;
20844;SDS011;10583;49.084;8.646;2023-12-20T09:18:24;1.97;;;1.97;;
20844;SDS011;10583;49.084;8.646;2023-12-20T09:20:51;1.77;;;1.77;;
20844;SDS011;10583;49.084;8.646;2023-12-20T09:23:18;1.87;;;1.87;;
20844;SDS011;10583;49.084;8.646;2023-12-20T09:25:44;1.90;;;1.90;;
20844;SDS011;10583;49.084;8.646;2023-12-20T09:28:11;1.70;;;1.70;;
20844;SDS011;10583;49.084;8.646;2023-12-20T09:30:39;1.53;;;1.53;;
20844;SDS011;10583;49.084;8.646;2023-12-20T09:33:06;1.43;;;1.43;;
20844;SDS011;10583;49.084;8.646;2023-12-20T09:35:33;1.93;;;1.93;;
20844;SDS011;10583;49.084;8.646;2023-12-20T09:37:59;1.60;;;1.60;;
20844;SDS011;10583;49.084;8.646;2023-12-20T09:40:26;1.90;;;1.90;;
20844;SDS011;10583;49.084;8.646;2023-12-20T09:42:56;1.50;;;1.50;;
20844;SDS011;10583;49.084;8.646;2023-12-20T09:45:23;1.70;;;1.70;;
20844;SDS011;10583;49.084;8.646;2023-12-20T09:47:52;1.57;;;1.57;;
20844;SDS011;10583;49.084;8.646;2023-12-20T09:50:19;1.90;;;1.90;;
20844;SDS011;10583;49.084;8.646;2023-12-20T09:52:47;1.63;;;1.63;;
20844;SDS011;10583;49.084;8.646;2023-12-20T09:55:17;1.50;;;1.50;;
20844;SDS011;10583;49.084;8.646;2023-12-20T09:57:44;1.60;;;1.60;;
20844;SDS011;10583;49.084;8.646;2023-12-20T10:00:12;1.50;;;1.50;;
20844;SDS011;10583;49.084;8.646;2023-12-20T10:02:44;1.40;;;1.40;;
20844;SDS011;10583;49.084;8.646;2023-12-20T10:05:17;1.60;;;1.60;;
20844;SDS011;10583;49.084;8.646;2023-12-20T10:07:45;1.90;;;1.90;;
20844;SDS011;10583;49.084;8.646;2023-12-20T10:10:12;2.10;;;2.10;;
20844;SDS011;10583;49.084;8.646;2023-12-20T10:12:39;1.87;;;1.87;;
20844;SDS011;10583;49.084;8.646;2023-12-20T10:15:06;2.00;;;2.00;;
20844;SDS011;10583;49.084;8.646;2023-12-20T10:17:35;1.70;;;1.70;;
20844;SDS011;10583;49.084;8.646;2023-12-20T10:20:02;2.20;;;2.20;;
20844;SDS011;10583;49.084;8.646;2023-12-20T10:22:35;1.87;;;1.87;;
20844;SDS011;10583;49.084;8.646;2023-12-20T10:25:03;1.80;;;1.80;;
20844;SDS011;10583;49.084;8.646;2023-12-20T10:27:30;1.63;;;1.63;;
20844;SDS011;10583;49.084;8.646;2023-12-20T10:29:58;2.10;;;2.10;;
20844;SDS011;10583;49.084;8.646;2023-12-20T10:32:26;1.80;;;1.80;;
20844;SDS011;10583;49.084;8.646;2023-12-20T10:34:54;1.97;;;1.97;;
20844;SDS011;10583;49.084;8.646;2023-12-20T10:37:21;2.47;;;2.47;;
20844;SDS011;10583;49.084;8.646;2023-12-20T10:39:49;1.80;;;1.80;;
20844;SDS011;10583;49.084;8.646;2023-12-20T10:42:21;1.90;;;1.90;;
20844;SDS011;10583;49.084;8.646;2023-12-20T10:44:48;1.90;;;1.90;;
20844;SDS011;10583;49.084;8.646;2023-12-20T10:47:15;2.60;;;2.60;;
20844;SDS011;10583;49.084;8.646;2023-12-20T10:49:43;2.30;;;2.30;;
20844;SDS011;10583;49.084;8.646;2023-12-20T10:52:10;2.20;;;2.20;;
20844;SDS011;10583;49.084;8.646;2023-12-20T10:54:38;2.23;;;2.23;;
20844;SDS011;10583;49.084;8.646;2023-12-20T10:57:07;2.00;;;2.00;;
20844;SDS011;10583;49.084;8.646;2023-12-20T10:59:36;1.90;;;1.90;;
20844;SDS011;10583;49.084;8.646;2023-12-20T11:02:04;2.13;;;2.13;;
20844;SDS011;10583;49.084;8.646;2023-12-20T11:07:17;2.17;;;2.17;;
20844;SDS011;10583;49.084;8.646;2023-12-20T11:09:52;2.50;;;2.50;;
20844;SDS011;10583;49.084;8.646;2023-12-20T11:12:28;2.50;;;2.50;;
20844;SDS011;10583;49.084;8.646;2023-12-20T11:15:04;2.47;;;2.47;;
20844;SDS011;10583;49.084;8.646;2023-12-20T11:17:32;2.20;;;2.20;;
20844;SDS011;10583;49.084;8.646;2023-12-20T11:20:06;2.50;;;2.50;;
20844;SDS011;10583;49.084;8.646;2023-12-20T11:22:36;2.37;;;2.37;;
20844;SDS011;10583;49.084;8.646;2023-12-20T11:25:07;2.90;;;2.90;;
20844;SDS011;10583;49.084;8.646;2023-12-20T11:27:36;2.13;;;2.13;;
20844;SDS011;10583;49.084;8.646;2023-12-20T11:30:06;2.10;;;2.10;;
20844;SDS011;10583;49.084;8.646;2023-12-20T11:32:35;2.60;;;2.60;;
20844;SDS011;10583;49.084;8.646;2023-12-20T11:35:16;2.20;;;2.20;;
20844;SDS011;10583;49.084;8.646;2023-12-20T11:37:44;2.57;;;2.57;;
20844;SDS011;10583;49.084;8.646;2023-12-20T11:40:13;2.40;;;2.40;;
20844;SDS011;10583;49.084;8.646;2023-12-20T11:42:43;2.50;;;2.50;;
20844;SDS011;10583;49.084;8.646;2023-12-20T11:45:11;2.40;;;2.40;;
20844;SDS011;10583;49.084;8.646;2023-12-20T11:47:41;2.60;;;2.60;;
20844;SDS011;10583;49.084;8.646;2023-12-20T11:50:08;2.37;;;2.37;;
20844;SDS011;10583;49.084;8.646;2023-12-20T11:52:35;3.67;;;3.67;;
20844;SDS011;10583;49.084;8.646;2023-12-20T11:55:02;2.80;;;2.80;;
20844;SDS011;10583;49.084;8.646;2023-12-20T11:57:29;3.07;;;3.07;;
20844;SDS011;10583;49.084;8.646;2023-12-20T11:59:58;2.90;;;2.90;;
20844;SDS011;10583;49.084;8.646;2023-12-20T12:02:24;2.87;;;2.87;;
20844;SDS011;10583;49.084;8.646;2023-12-20T12:04:51;2.90;;;2.90;;
20844;SDS011;10583;49.084;8.646;2023-12-20T12:07:18;2.50;;;2.50;;
20844;SDS011;10583;49.084;8.646;2023-12-20T12:09:45;2.33;;;2.33;;
20844;SDS011;10583;49.084;8.646;2023-12-20T12:12:12;2.70;;;2.70;;
20844;SDS011;10583;49.084;8.646;2023-12-20T12:14:39;2.73;;;2.73;;
20844;SDS011;10583;49.084;8.646;2023-12-20T12:17:11;2.40;;;2.40;;
20844;SDS011;10583;49.084;8.646;2023-12-20T12:19:38;2.97;;;2.97;;
20844;SDS011;10583;49.084;8.646;2023-12-20T12:22:05;2.80;;;2.80;;
20844;SDS011;10583;49.084;8.646;2023-12-20T12:24:35;2.30;;;2.30;;
20844;SDS011;10583;49.084;8.646;2023-12-20T12:27:02;3.10;;;3.10;;
20844;SDS011;10583;49.084;8.646;2023-12-20T12:29:29;2.90;;;2.90;;
20844;SDS011;10583;49.084;8.646;2023-12-20T12:31:56;2.80;;;2.80;;
20844;SDS011;10583;49.084;8.646;2023-12-20T12:34:24;3.20;;;3.20;;
20844;SDS011;10583;49.084;8.646;2023-12-20T12:36:53;2.90;;;2.90;;
20844;SDS011;10583;49.084;8.646;2023-12-20T12:39:20;3.60;;;3.60;;
20844;SDS011;10583;49.084;8.646;2023-12-20T12:41:46;3.10;;;3.10;;
20844;SDS011;10583;49.084;8.646;2023-12-20T12:44:13;4.20;;;4.20;;
20844;SDS011;10583;49.084;8.646;2023-12-20T12:46:40;4.10;;;4.10;;
20844;SDS011;10583;49.084;8.646;2023-12-20T12:49:07;3.67;;;3.67;;
20844;SDS011;10583;49.084;8.646;2023-12-20T12:51:35;2.57;;;2.57;;
20844;SDS011;10583;49.084;8.646;2023-12-20T12:54:02;3.23;;;3.23;;
20844;SDS011;10583;49.084;8.646;2023-12-20T12:56:29;2.83;;;2.83;;
20844;SDS011;10583;49.084;8.646;2023-12-20T12:58:55;2.57;;;2.57;;
20844;SDS011;10583;49.084;8.646;2023-12-20T13:01:22;2.53;;;2.53;;
20844;SDS011;10583;49.084;8.646;2023-12-20T13:03:49;2.47;;;2.47;;
20844;SDS011;10583;49.084;8.646;2023-12-20T13:06:16;2.17;;;2.17;;
20844;SDS011;10583;49.084;8.646;2023-12-20T13:08:44;3.20;;;3.20;;
20844;SDS011;10583;49.084;8.646;2023-12-20T13:11:11;2.40;;;2.40;;
20844;SDS011;10583;49.084;8.646;2023-12-20T13:13:38;4.30;;;4.30;;
20844;SDS011;10583;49.084;8.646;2023-12-20T13:16:04;15.57;;;15.47;;
20844;SDS011;10583;49.084;8.646;2023-12-20T13:18:31;5.10;;;5.10;;
20844;SDS011;10583;49.084;8.646;2023-12-20T13:20:58;2.37;;;2.37;;
20844;SDS011;10583;49.084;8.646;2023-12-20T13:23:25;8.70;;;8.70;;
20844;SDS011;10583;49.084;8.646;2023-12-20T13:25:53;3.70;;;3.70;;
20844;SDS011;10583;49.084;8.646;2023-12-20T13:28:20;2.30;;;2.30;;
20844;SDS011;10583;49.084;8.646;2023-12-20T13:30:47;2.73;;;2.73;;
20844;SDS011;10583;49.084;8.646;2023-12-20T13:33:13;2.80;;;2.80;;
20844;SDS011;10583;49.084;8.646;2023-12-20T13:35:39;2.33;;;2.33;;
20844;SDS011;10583;49.084;8.646;2023-12-20T13:38:06;2.23;;;2.23;;
20844;SDS011;10583;49.084;8.646;2023-12-20T13:40:33;3.40;;;3.40;;
20844;SDS011;10583;49.084;8.646;2023-12-20T13:43:01;2.83;;;2.83;;
20844;SDS011;10583;49.084;8.646;2023-12-20T13:45:28;2.10;;;2.10;;
20844;SDS011;10583;49.084;8.646;2023-12-20T13:47:55;2.63;;;2.63;;
20844;SDS011;10583;49.084;8.646;2023-12-20T13:50:22;2.53;;;2.53;;
20844;SDS011;10583;49.084;8.646;2023-12-20T13:52:48;2.13;;;2.13;;
20844;SDS011;10583;49.084;8.646;2023-12-20T13:55:15;2.37;;;2.37;;
20844;SDS011;10583;49.084;8.646;2023-12-20T13:57:42;2.80;;;2.80;;
20844;SDS011;10583;49.084;8.646;2023-12-20T14:00:11;2.50;;;2.50;;
20844;SDS011;10583;49.084;8.646;2023-12-20T14:02:39;2.50;;;2.50;;
20844;SDS011;10583;49.084;8.646;2023-12-20T14:05:07;2.70;;;2.70;;
20844;SDS011;10583;49.084;8.646;2023-12-20T14:07:34;2.63;;;2.63;;
20844;SDS011;10583;49.084;8.646;2023-12-20T14:10:01;2.43;;;2.43;;
20844;SDS011;10583;49.084;8.646;2023-12-20T14:12:28;2.60;;;2.60;;
20844;SDS011;10583;49.084;8.646;2023-12-20T14:14:54;4.60;;;4.60;;
20844;SDS011;10583;49.084;8.646;2023-12-20T14:17:23;3.97;;;3.97;;
20844;SDS011;10583;49.084;8.646;2023-12-20T14:19:49;3.77;;;3.77;;
20844;SDS011;10583;49.084;8.646;2023-12-20T14:22:16;2.80;;;2.80;;
20844;SDS011;10583;49.084;8.646;2023-12-20T14:24:43;2.60;;;2.60;;
20844;SDS011;10583;49.084;8.646;2023-12-20T14:27:10;2.90;;;2.90;;
20844;SDS011;10583;49.084;8.646;2023-12-20T14:29:38;2.37;;;2.37;;
20844;SDS011;10583;49.084;8.646;2023-12-20T14:32:05;2.63;;;2.63;;
20844;SDS011;10583;49.084;8.646;2023-12-20T14:34:33;4.13;;;4.13;;
20844;SDS011;10583;49.084;8.646;2023-12-20T14:37:01;3.47;;;3.47;;
20844;SDS011;10583;49.084;8.646;2023-12-20T14:39:28;3.03;;;3.03;;
20844;SDS011;10583;49.084;8.646;2023-12-20T14:41:55;4.10;;;4.10;;
20844;SDS011;10583;49.084;8.646;2023-12-20T14:44:22;2.90;;;2.90;;
20844;SDS011;10583;49.084;8.646;2023-12-20T14:46:49;3.20;;;3.20;;
20844;SDS011;10583;49.084;8.646;2023-12-20T14:49:16;3.73;;;3.73;;
20844;SDS011;10583;49.084;8.646;2023-12-20T14:51:44;3.73;;;3.73;;